HOURLY OBS INDEX

058

North Coast

BALLINA AIRPORT AWS

Site: 058198
Alt: 1.3m
2km E of BALLINA


  Time     Wind        Temp  DP   Baro     Rain since   Rain past  Vis(m), Cloud(base in m), Weather
  local        km/h                         9am  last   hr   10m    
Tue 20:00    W 11/ 13  10.6  6.0  1018.7    0.0   0.0   0.0   0.0   10000|SC1950 
Tue 20:30    W 13/ 17  11.0  6.6  1018.8    0.0   0.0   0.0   0.0   10000 
Tue 21:00   SW  9/ 13  11.5  5.6  1018.9    0.0   0.0   0.0   0.0   10000 
Tue 21:30   SW 13/ 17  12.1  5.7  1019.1    0.0   0.0   0.0   0.0   10000 
Tue 22:00   SW 15/ 20  11.7  5.3  1019.4    0.0   0.0   0.0   0.0   10000 
Tue 22:30  WSW 15/ 20  12.0  5.4  1019.6    0.0   0.0   0.0   0.0   10000 
Tue 23:00  WSW 17/ 20  11.3  5.6  1019.5    0.0   0.0   0.0   0.0   10000 
Tue 23:30  WSW 13/ 17  10.4  5.0  1019.5    0.0   0.0   0.0   0.0   10000 
Wed 00:00    W 15/ 19  10.6  4.9  1019.3    0.0   0.0   0.0   0.0   10000 
Wed 00:30    W 13/ 17   9.3  4.5  1019.2    0.0   0.0   0.0   0.0   10000 
Wed 01:00  WSW 15/ 20  10.9  5.0  1019.2    0.0   0.0   0.0   0.0   10000 
Wed 01:00  WSW 15/ 20  10.9  5.0  1019.2    0.0   0.0  ----   0.0   10000 

BYRON BAY (CAPE BYRON AWS)

Site: 058216
Alt: 95.0m
24km NNE of BALLINA


  Time     Wind        Temp  DP   Baro     Rain since   Rain past  Vis(m), Cloud(base in m), Weather
  local        km/h                         9am  last   hr   10m    
Tue 20:00   SW 32/ 43  14.3  4.3  1018.9    0.0   0.0   0.0   0.0   ----- 
Tue 20:30   SW 28/ 35  14.1  4.1  1018.8    0.0   0.0   0.0   0.0   ----- 
Tue 21:00   SW 30/ 39  14.1  4.4  1018.8    0.0   0.0   0.0   0.0   ----- 
Tue 21:30   SW 32/ 39  13.7  4.3  1019.0    0.0   0.0   0.0   0.0   ----- 
Tue 22:00   SW 32/ 39  13.6  4.2  1019.4    0.0   0.0   0.0   0.0   ----- 
Tue 22:30   SW 32/ 41  13.2  4.4  1019.6    0.0   0.0   0.0   0.0   ----- 
Tue 23:00   SW 33/ 46  13.2  4.4  1019.4    0.0   0.0   0.0   0.0   ----- 
Tue 23:30   SW 33/ 46  13.1  4.5  1019.6    0.0   0.0   0.0   0.0   ----- 
Wed 00:00   SW 28/ 37  12.6  4.3  1019.5    0.0   0.0   0.0   0.0   ----- 
Wed 00:30  WSW 32/ 37  12.2  4.2  1019.3    0.0   0.0   0.0   0.0   ----- 
Wed 01:00   SW 32/ 41  12.4  4.1  1019.0    0.0   0.0   0.0   0.0   ----- 
Wed 01:00   SW 32/ 41  12.4  4.1  1019.0    0.0   0.0  ----   0.0   ----- 

CASINO AIRPORT AWS

Site: 058208
Alt: 20.9m
3km S of CASINO


  Time     Wind        Temp  DP   Baro     Rain since   Rain past  Vis(m), Cloud(base in m), Weather
  local        km/h                         9am  last   hr   10m    
Tue 20:00  WSW  6/  7  10.5  3.8  1019.2    0.0   0.0   0.0   0.0   ----- 
Tue 20:30    C  0/  6   7.4  2.5  1019.3    0.0   0.0   0.0   0.0   ----- 
Tue 21:00    W  7/  9   8.5  4.3  1019.5    0.0   0.0   0.0   0.0   ----- 
Tue 21:30  WSW  2/  6   5.7  1.8  1019.8    0.0   0.0   0.0   0.0   ----- 
Tue 22:00    C  0/  0   5.0  2.4  1020.1    0.0   0.0   0.0   0.0   ----- 
Tue 22:30   NW  6/  7   4.8  2.3  1020.3    0.0   0.0   0.0   0.0   ----- 
Tue 23:00   NW  7/  7   4.3  2.3  1020.2    0.0   0.0   0.0   0.0   ----- 
Tue 23:30   NW  2/  7   3.8  1.5  1020.2    0.0   0.0   0.0   0.0   ----- 
Wed 00:00    C  0/  0   3.1  1.2  1020.1    0.0   0.0   0.0   0.0   ----- 
Wed 00:30    W  6/  9   3.5  1.9  1019.9    0.0   0.0   0.0   0.0   ----- 
Wed 01:00  WNW  6/  7   2.6  0.7  1019.9    0.0   0.0   0.0   0.0   ----- 
Wed 01:00  WNW  6/  7   2.6  0.7  1019.9    0.0   0.0  ----   0.0   ----- 

EVANS HEAD RAAF BOMBING RANGE AWS

Site: 058212
Alt: 62.5m
41km SSW of BALLINA


  Time     Wind        Temp  DP   Baro     Rain since   Rain past  Vis(m), Cloud(base in m), Weather
  local        km/h                         9am  last   hr   10m    
Tue 20:00   SW 15/ 20  13.4  5.6  1018.7    0.0   0.0   0.0   0.0   ----- 
Tue 20:30  SSW 19/ 22  13.3  5.0  1018.8    0.0   0.0   0.0   0.0   ----- 
Tue 21:00  SSW 19/ 24  12.9  4.8  1019.1    0.0   0.0   0.0   0.0   ----- 
Tue 21:30  SSW 19/ 28  12.7  4.9  1019.3    0.0   0.0   0.0   0.0   ----- 
Tue 22:00   SW 19/ 26  12.0  4.5  1019.5    0.0   0.0   0.0   0.0   ----- 
Tue 22:30  SSW 20/ 32  12.0  4.5  1019.1    0.0   0.0   0.0   0.0   ----- 
Tue 23:00   SW 19/ 22  11.8  4.3  1019.5    0.0   0.0   0.0   0.0   ----- 
Tue 23:30   SW 19/ 24  12.2  4.2  1019.5    0.0   0.0   0.0   0.0   ----- 
Wed 00:00   SW 19/ 24  11.8  4.1  1019.3    0.0   0.0   0.0   0.0   ----- 
Wed 00:30   SW 20/ 26  11.9  4.2  1019.2    0.0   0.0   0.0   0.0   ----- 
Wed 01:00   SW 20/ 26  11.9  4.2  1019.1    0.0   0.0   0.0   0.0   ----- 
Wed 01:00   SW 20/ 26  11.9  4.2  1019.1    0.0   0.0  ----   0.0   ----- 

GRAFTON AIRPORT AWS

Site: 058161
Alt: 25.1m
13km SE of GRAFTON


  Time     Wind        Temp  DP   Baro     Rain since   Rain past  Vis(m), Cloud(base in m), Weather
  local        km/h                         9am  last   hr   10m    
Tue 20:00    S  7/  9   9.8  4.8  1019.3    0.0   0.0   0.0   0.0   10000 
Tue 20:30    S  2/  7  11.2  4.4  1019.8    0.0   0.0   0.0   0.0   10000 
Tue 21:00    C  0/  0   9.6  4.6  1019.9    0.0   0.0   0.0   0.0   10000|SC1890 
Tue 21:30  SSW  6/  7   8.4  4.4  1020.0    0.0   0.0   0.0   0.0   10000 
Tue 22:00  WSW  6/  9   7.9  4.1  1020.1    0.0   0.0   0.0   0.0   10000 
Tue 22:30   SW  7/  9   8.6  4.0  1020.0    0.0   0.0   0.0   0.0   10000 
Tue 23:00  SSW  6/  9   7.3  4.4  1020.1    0.0   0.0   0.0   0.0   10000 
Tue 23:30   SW  6/  7   8.2  4.6  1020.1    0.0   0.0   0.0   0.0   10000 
Wed 00:00    S  7/  9   7.8  4.0  1020.3    0.0   0.0   0.0   0.0   10000 
Wed 00:30  SSW  9/ 11   7.3  4.4  1020.0    0.0   0.0   0.0   0.0   10000 
Wed 01:00  SSW  9/ 11   6.9  4.2  1020.3    0.0   0.0   0.0   0.0   10000 
Wed 01:00  SSW  9/ 11   6.9  4.2  1020.3    0.0   0.0  ----   0.0   10000 

GRAFTON RESEARCH STN

Site: 058077
Alt: 25.0m
7km NNE of GRAFTON


  Time     Wind        Temp  DP   Baro     Rain since   Rain past  Vis(m), Cloud(base in m), Weather
  local        km/h                         9am  last   hr   10m    
Tue 20:00   SW  9/ 15  13.0  4.4  ------    0.0   0.0   0.0   0.0   ----- 
Tue 20:30  SSW  9/ 15  12.5  4.2  ------    0.0   0.0   0.0   0.0   ----- 
Tue 21:00   SW  9/ 11  12.0  4.2  ------    0.0   0.0   0.0   0.0   ----- 
Tue 21:30  WSW  9/ 13  11.9  4.4  ------    0.0   0.0   0.0   0.0   ----- 
Tue 22:00    W 11/ 13  11.7  4.2  ------    0.0   0.0   0.0   0.0   ----- 
Tue 22:30    W 11/ 15  11.0  4.7  ------    0.0   0.0   0.0   0.0   ----- 
Tue 23:00    W 11/ 13  11.4  4.8  ------    0.0   0.0   0.0   0.0   ----- 
Tue 23:30    W 13/ 17  11.1  4.3  ------    0.0   0.0   0.0   0.0   ----- 
Wed 00:00    W 13/ 15  10.4  4.8  ------    0.0   0.0   0.0   0.0   ----- 
Wed 00:30  WSW  7/ 11   8.2  4.4  ------    0.0   0.0   0.0   0.0   ----- 
Wed 01:00    W 13/ 15   9.0  4.8  ------    0.0   0.0   0.0   0.0   ----- 
Wed 01:00    W 13/ 15   9.0  4.8  ------    0.0   0.0  ----   0.0   ----- 

LISMORE AIRPORT AWS

Site: 058214
Alt: 9.2m
3km SW of LISMORE


  Time     Wind        Temp  DP   Baro     Rain since   Rain past  Vis(m), Cloud(base in m), Weather
  local        km/h                         9am  last   hr   10m    
Tue 20:00   SW  7/ 11  11.1  3.9  1018.9    0.0   0.0   0.0   0.0   10000 
Tue 20:30    S  7/ 11   9.9  3.9  1018.9    0.0   0.0   0.0   0.0   10000 
Tue 21:00  SSE  6/  7   8.5  4.9  1019.1    0.0   0.0   0.0   0.0   10000 
Tue 21:30    S  7/  9   7.7  4.3  1019.4    0.0   0.0   0.0   0.0   10000 
Tue 22:00    S  6/ 11   6.5  3.7  1019.8    0.0   0.0   0.0   0.0    8000 
Tue 22:30    C  0/  0   5.8  3.1  1020.0    0.0   0.0   0.0   0.0   10000 
Tue 23:00    C  0/  0   6.3  4.6  1019.9    0.0   0.0   0.0   0.0   10000 
Tue 23:30    C  0/  0   5.4  3.3  1020.0    0.0   0.0   0.0   0.0   10000 
Wed 00:00    N  9/ 11   5.3  3.3  1019.8    0.0   0.0   0.0   0.0   10000 
Wed 00:30    N 11/ 15   5.2  4.0  1019.7    0.0   0.0   0.0   0.0   10000 
Wed 01:00    N  6/  9   4.4  3.1  1019.6    0.0   0.0   0.0   0.0   10000 
Wed 01:00    N  6/  9   4.4  3.1  1019.6    0.0   0.0  ----   0.0   10000 

YAMBA PILOT STATION

Site: 058012
Alt: 27.4m
50km NE of GRAFTON


  Time     Wind        Temp  DP   Baro     Rain since   Rain past  Vis(m), Cloud(base in m), Weather
  local        km/h                         9am  last   hr   10m    
Tue 20:00  SSW 11/ 15  12.6  7.3  1019.0    0.0   0.0   0.0   0.0   ----- 
Tue 20:30   SW  7/ 11  12.8  6.4  1019.2    0.0   0.0   0.0   0.0   ----- 
Tue 21:00   SW 11/ 22  13.3  6.2  1019.3    0.0   0.0   0.0   0.0   ----- 
Tue 21:30   SW  7/ 13  12.8  5.9  1019.6    0.0   0.0   0.0   0.0   ----- 
Tue 22:00   SW  9/ 15  12.3  5.9  1019.8    0.0   0.0   0.0   0.0   ----- 
Tue 22:30  WSW  7/ 13  12.0  5.4  1019.6    0.0   0.0   0.0   0.0   ----- 
Tue 23:00  WSW  9/ 15  11.6  5.9  1019.7    0.0   0.0   0.0   0.0   ----- 
Tue 23:30    W  9/ 11  10.8  6.2  1019.8    0.0   0.0   0.0   0.0   ----- 
Wed 00:00   SW  9/ 15  11.1  5.4  1019.5    0.0   0.0   0.0   0.0   ----- 
Wed 00:30   SW  7/ 15  10.7  5.7  1019.5    0.0   0.0   0.0   0.0   ----- 
Wed 01:00   SW 11/ 17  11.2  5.5  1019.6    0.0   0.0   0.0   0.0   ----- 
Wed 01:00   SW 11/ 17  11.2  5.5  1019.6    0.0   0.0  ----   0.0   -----